Time;durP1;ratioP1;P1;durP2;ratioP2;P2;SDS_P1;SDS_P2;PMS_P1;PMS_P2;Temp;Humidity;BMP_temperature;BMP_pressure;BME280_temperature;BME280_humidity;BME280_pressure;Samples;Min_cycle;Max_cycle;Signal;HPM_P1;HPM_P2
2021/06/05 00:02:22;;;;;;;6.10;3.88;;;23.30;42.30;;;;;;4994924;28;20026;-64
2021/06/05 00:04:49;;;;;;;6.43;3.80;;;23.30;42.50;;;;;;5013118;28;20025;-63
2021/06/05 00:07:16;;;;;;;6.30;4.05;;;23.30;42.30;;;;;;5011727;28;20029;-63
2021/06/05 00:09:43;;;;;;;5.03;4.03;;;23.20;42.60;;;;;;5005494;28;20018;-63
2021/06/05 00:12:10;;;;;;;6.00;3.60;;;23.20;42.30;;;;;;4993673;28;20033;-64
2021/06/05 00:14:37;;;;;;;5.72;4.30;;;23.20;42.40;;;;;;4997069;28;20084;-64
2021/06/05 00:17:03;;;;;;;5.45;3.63;;;23.10;42.40;;;;;;5006497;28;20018;-63
2021/06/05 00:19:28;;;;;;;6.25;3.88;;;23.00;42.30;;;;;;5012887;28;20030;-64
2021/06/05 00:21:54;;;;;;;8.13;5.93;;;22.90;42.20;;;;;;5013232;28;20077;-63
2021/06/05 00:24:20;;;;;;;16.48;10.65;;;22.90;42.80;;;;;;5013197;28;20437;-63
2021/06/05 00:26:47;;;;;;;13.10;6.65;;;22.80;43.50;;;;;;5006765;28;20101;-64
2021/06/05 00:29:13;;;;;;;7.40;5.78;;;22.70;43.90;;;;;;4993468;28;20019;-63
2021/06/05 00:31:39;;;;;;;6.95;5.10;;;22.60;43.80;;;;;;4997147;28;20097;-63
2021/06/05 00:34:05;;;;;;;9.88;4.93;;;22.50;44.20;;;;;;4993360;28;20027;-63
2021/06/05 00:36:31;;;;;;;8.93;5.43;;;22.40;44.10;;;;;;4993486;28;20022;-63
2021/06/05 00:38:57;;;;;;;7.38;4.78;;;22.40;44.10;;;;;;4993301;28;20481;-63
2021/06/05 00:41:26;;;;;;;10.18;4.70;;;22.40;44.50;;;;;;4995441;28;20027;-63
2021/06/05 00:43:53;;;;;;;7.80;4.78;;;22.30;44.90;;;;;;4997352;28;20034;-63
2021/06/05 00:46:23;;;;;;;6.88;4.65;;;22.20;44.80;;;;;;4997417;28;20366;-63
2021/06/05 00:48:49;;;;;;;8.57;5.13;;;22.10;44.80;;;;;;5003977;28;20053;-64
2021/06/05 00:51:17;;;;;;;8.25;5.38;;;22.00;44.90;;;;;;5015218;28;20112;-63
2021/06/05 00:53:44;;;;;;;7.55;4.90;;;22.00;46.00;;;;;;5015031;28;20048;-63
2021/06/05 00:56:13;;;;;;;13.43;8.20;;;21.90;45.90;;;;;;5016708;28;20022;-63
2021/06/05 00:58:39;;;;;;;9.40;5.78;;;21.80;46.00;;;;;;5016530;28;20109;-64
2021/06/05 01:01:22;;;;;;;6.90;5.13;;;21.80;46.30;;;;;;5016737;28;20388;-63
2021/06/05 01:03:48;;;;;;;10.65;5.72;;;21.70;46.40;;;;;;5001210;28;20037;-63
2021/06/05 01:06:21;;;;;;;9.07;4.28;;;21.70;47.10;;;;;;4996974;28;20029;-63
2021/06/05 01:09:18;;;;;;;5.28;4.45;;;21.70;46.70;;;;;;4997060;28;20030;-63
2021/06/05 01:11:53;;;;;;;9.10;4.72;;;21.60;46.40;;;;;;4996536;28;20034;-63
2021/06/05 01:14:33;;;;;;;7.07;4.50;;;21.60;47.20;;;;;;4996933;28;20018;-63
2021/06/05 01:17:03;;;;;;;4.82;4.00;;;21.50;46.80;;;;;;4996968;28;20423;-64
2021/06/05 01:19:58;;;;;;;6.82;5.03;;;21.50;46.50;;;;;;4997005;28;20026;-63
2021/06/05 01:22:51;;;;;;;7.97;6.28;;;21.40;46.50;;;;;;4996836;28;20061;-64
2021/06/05 01:25:50;;;;;;;5.82;4.90;;;21.30;46.80;;;;;;4996731;28;20033;-63
2021/06/05 01:28:24;;;;;;;5.03;4.10;;;21.30;46.50;;;;;;4996531;28;20396;-63
2021/06/05 01:30:54;;;;;;;7.20;5.28;;;21.20;46.60;;;;;;4996617;28;20105;-63
2021/06/05 01:33:23;;;;;;;5.60;4.22;;;21.20;47.30;;;;;;5013577;28;20096;-63
2021/06/05 01:35:49;;;;;;;6.03;3.92;;;21.10;47.00;;;;;;5012651;28;20026;-63
2021/06/05 01:38:16;;;;;;;5.47;3.90;;;21.10;46.90;;;;;;4996485;28;20059;-63
2021/06/05 01:40:46;;;;;;;4.40;3.80;;;21.00;47.10;;;;;;4996707;28;20022;-63
2021/06/05 01:43:14;;;;;;;8.10;3.97;;;21.00;47.30;;;;;;5015914;28;20030;-63
2021/06/05 01:45:42;;;;;;;5.63;4.47;;;20.90;47.10;;;;;;5015911;28;20452;-63
2021/06/05 01:48:11;;;;;;;5.10;3.97;;;20.90;47.30;;;;;;5013851;28;20544;-63
2021/06/05 01:50:39;;;;;;;7.65;4.28;;;20.80;47.50;;;;;;4996050;28;20454;-63
2021/06/05 01:53:28;;;;;;;4.10;3.65;;;20.80;47.80;;;;;;4994558;28;20046;-63
2021/06/05 01:56:04;;;;;;;4.93;3.97;;;20.70;47.50;;;;;;4994728;28;20022;-63
2021/06/05 01:58:32;;;;;;;9.75;5.35;;;20.80;47.70;;;;;;5003367;28;20026;-63
2021/06/05 02:01:00;;;;;;;7.60;4.95;;;20.70;48.60;;;;;;5013954;28;20025;-63
2021/06/05 02:03:26;;;;;;;8.95;5.90;;;20.70;48.60;;;;;;5014108;28;20365;-64
2021/06/05 02:05:52;;;;;;;8.40;5.57;;;20.60;49.00;;;;;;5015496;28;20026;-63
2021/06/05 02:08:22;;;;;;;6.45;4.80;;;20.60;48.70;;;;;;5015436;28;20500;-63
2021/06/05 02:10:48;;;;;;;7.35;5.10;;;20.60;48.60;;;;;;5015122;28;20029;-63
2021/06/05 02:13:23;;;;;;;8.20;6.70;;;20.60;49.10;;;;;;5015284;28;20029;-63
2021/06/05 02:15:57;;;;;;;6.72;5.00;;;20.50;50.10;;;;;;5014099;28;20033;-63
2021/06/05 02:18:29;;;;;;;7.10;4.10;;;20.50;49.80;;;;;;4996200;28;20034;-64
2021/06/05 02:21:23;;;;;;;6.78;3.95;;;20.50;49.10;;;;;;4995572;28;20030;-63
2021/06/05 02:23:57;;;;;;;8.05;4.10;;;20.50;48.90;;;;;;4996279;28;20057;-63
2021/06/05 02:26:23;;;;;;;;;;;20.40;49.60;;;;;;4997874;28;20038;-63
2021/06/05 02:28:53;;;;;;;5.00;3.28;;;20.50;47.80;;;;;;4997259;28;19906;-63
2021/06/05 02:31:20;;;;;;;13.02;3.75;;;20.40;48.40;;;;;;4995281;28;20040;-63
2021/06/05 02:33:47;;;;;;;6.18;3.75;;;20.40;48.60;;;;;;4995360;28;20026;-63
2021/06/05 02:36:13;;;;;;;3.60;3.30;;;20.40;49.00;;;;;;4995387;28;20441;-63
2021/06/05 02:38:42;;;;;;;6.82;4.50;;;20.30;49.00;;;;;;4995464;28;20025;-63
2021/06/05 02:41:10;;;;;;;5.53;3.80;;;20.30;49.90;;;;;;5009445;28;20058;-63
2021/06/05 02:43:37;;;;;;;8.30;5.72;;;20.30;49.70;;;;;;5014811;28;20025;-63
2021/06/05 02:46:23;;;;;;;7.57;4.65;;;20.20;49.80;;;;;;5004603;28;20030;-63
2021/06/05 02:48:56;;;;;;;5.20;4.15;;;20.20;49.80;;;;;;4995238;28;20031;-63
2021/06/05 02:51:26;;;;;;;6.45;4.38;;;20.20;50.20;;;;;;4996294;28;20392;-63
2021/06/05 02:53:52;;;;;;;9.63;5.05;;;20.10;50.00;;;;;;5013038;28;20121;-63
2021/06/05 02:56:20;;;;;;;4.50;4.07;;;20.10;50.10;;;;;;5011870;28;20018;-63
2021/06/05 02:58:46;;;;;;;7.78;5.85;;;20.10;50.10;;;;;;4994918;28;20029;-64
2021/06/05 03:01:13;;;;;;;9.40;6.05;;;20.00;50.00;;;;;;4994903;28;20023;-63
2021/06/05 03:03:39;;;;;;;9.35;5.63;;;20.00;50.10;;;;;;5008861;28;20112;-63
2021/06/05 03:06:06;;;;;;;11.18;8.05;;;20.00;50.20;;;;;;5014302;28;20072;-64
2021/06/05 03:08:34;;;;;;;12.15;7.93;;;20.00;50.70;;;;;;5014293;28;20026;-64
2021/06/05 03:11:02;;;;;;;10.95;7.45;;;19.90;50.70;;;;;;4997125;28;20034;-63
2021/06/05 03:13:28;;;;;;;8.75;6.72;;;19.90;50.70;;;;;;4994371;28;20096;-63
2021/06/05 03:15:54;;;;;;;7.05;6.25;;;19.90;50.70;;;;;;4994640;28;20105;-65
2021/06/05 03:18:22;;;;;;;10.40;6.72;;;19.90;50.70;;;;;;4994524;28;20479;-63
2021/06/05 03:20:50;;;;;;;7.15;5.75;;;19.90;51.00;;;;;;4994507;28;20457;-64
2021/06/05 03:23:19;;;;;;;7.35;5.03;;;19.90;51.00;;;;;;4994288;28;20159;-63
2021/06/05 03:25:46;;;;;;;11.75;5.93;;;19.90;51.20;;;;;;4994366;28;20030;-67
2021/06/05 03:28:13;;;;;;;8.85;5.55;;;19.90;51.30;;;;;;4993051;28;20420;-63
2021/06/05 03:30:39;;;;;;;7.55;5.65;;;19.90;51.10;;;;;;4994365;28;20030;-63
2021/06/05 03:33:06;;;;;;;5.93;4.32;;;19.90;51.20;;;;;;4994205;28;20081;-64
2021/06/05 03:35:32;;;;;;;7.10;4.65;;;19.90;51.40;;;;;;4994073;28;20022;-63
2021/06/05 03:37:58;;;;;;;5.13;4.55;;;19.90;51.20;;;;;;4994123;28;20354;-63
2021/06/05 03:40:29;;;;;;;5.38;4.20;;;19.90;51.20;;;;;;4993918;28;20106;-63
2021/06/05 03:42:56;;;;;;;5.80;4.57;;;19.90;51.30;;;;;;4994127;28;20053;-64
2021/06/05 03:45:22;;;;;;;7.15;5.82;;;19.90;51.70;;;;;;4994089;28;20054;-63
2021/06/05 03:47:48;;;;;;;6.18;5.10;;;19.90;52.20;;;;;;5004091;28;20038;-63
2021/06/05 03:50:17;;;;;;;5.22;4.72;;;19.90;52.10;;;;;;4994038;28;20498;-63
2021/06/05 03:52:43;;;;;;;8.48;4.60;;;19.90;52.10;;;;;;5005688;28;20038;-63
2021/06/05 03:55:11;;;;;;;7.38;4.90;;;19.90;52.00;;;;;;5013505;28;20041;-63
2021/06/05 03:57:37;;;;;;;7.80;4.78;;;20.00;52.30;;;;;;5013266;28;20398;-63
2021/06/05 04:00:07;;;;;;;5.43;4.35;;;20.00;52.30;;;;;;5002525;28;20038;-63
2021/06/05 04:02:33;;;;;;;6.13;4.03;;;20.00;52.40;;;;;;4993679;28;20494;-63
2021/06/05 04:04:58;;;;;;;8.32;4.50;;;20.00;52.30;;;;;;4993598;28;20116;-63
2021/06/05 04:07:24;;;;;;;14.30;5.60;;;20.10;52.50;;;;;;4993687;28;20038;-63
2021/06/05 04:09:50;;;;;;;8.18;4.35;;;20.10;52.70;;;;;;4993742;28;20026;-63
2021/06/05 04:12:16;;;;;;;17.13;5.18;;;20.10;52.50;;;;;;4993564;28;20062;-63
2021/06/05 04:14:42;;;;;;;9.50;4.60;;;20.20;52.70;;;;;;4993633;28;20037;-63
2021/06/05 04:17:09;;;;;;;5.50;3.97;;;20.20;52.90;;;;;;4992724;28;20392;-62
2021/06/05 04:19:36;;;;;;;11.07;4.00;;;20.30;52.80;;;;;;4993574;28;20465;-63
2021/06/05 04:22:03;;;;;;;19.10;9.07;;;20.30;52.60;;;;;;4993380;28;20140;-63
2021/06/05 04:24:29;;;;;;;14.27;8.00;;;20.30;52.80;;;;;;5000473;28;20091;-63
2021/06/05 04:26:55;;;;;;;8.25;5.50;;;20.30;52.70;;;;;;5012774;28;20464;-63
2021/06/05 04:29:21;;;;;;;8.73;6.95;;;20.40;52.60;;;;;;5013184;28;20108;-63
2021/06/05 04:31:47;;;;;;;11.32;7.68;;;20.50;52.70;;;;;;5013107;28;20022;-63
2021/06/05 04:34:13;;;;;;;10.88;6.53;;;20.60;52.60;;;;;;5013127;28;20506;-63
2021/06/05 04:36:38;;;;;;;9.18;6.07;;;20.60;52.50;;;;;;5012793;28;20040;-63
2021/06/05 04:39:05;;;;;;;7.70;5.53;;;20.70;52.50;;;;;;5013054;28;20022;-63
2021/06/05 04:41:32;;;;;;;10.32;6.15;;;20.80;52.20;;;;;;4997750;28;20057;-63
2021/06/05 04:43:57;;;;;;;11.02;6.07;;;20.80;52.10;;;;;;4993475;28;20535;-63
2021/06/05 04:46:23;;;;;;;11.43;6.10;;;20.90;52.00;;;;;;4993270;28;20027;-63
2021/06/05 04:48:49;;;;;;;12.93;6.57;;;21.00;52.00;;;;;;4995262;28;20083;-63
2021/06/05 04:51:17;;;;;;;23.30;10.45;;;21.10;52.10;;;;;;4993458;28;20095;-63
2021/06/05 04:53:43;;;;;;;17.70;9.15;;;21.10;52.00;;;;;;5011329;28;20399;-64
2021/06/05 04:56:10;;;;;;;19.02;9.70;;;21.30;52.10;;;;;;5012902;28;20480;-64
2021/06/05 04:58:36;;;;;;;28.00;12.07;;;21.40;52.00;;;;;;5011499;28;20113;-64
2021/06/05 05:01:02;;;;;;;19.63;9.30;;;21.50;52.10;;;;;;5012064;28;20100;-63
2021/06/05 05:03:30;;;;;;;18.55;7.80;;;21.50;51.80;;;;;;4993302;28;20038;-64
2021/06/05 05:06:00;;;;;;;14.50;7.07;;;21.70;51.50;;;;;;4993349;28;20038;-64
2021/06/05 05:08:28;;;;;;;29.15;8.48;;;21.70;51.30;;;;;;4992269;28;20373;-63
2021/06/05 05:10:54;;;;;;;11.13;6.68;;;21.80;51.10;;;;;;4992924;28;20085;-64
2021/06/05 05:13:25;;;;;;;9.82;5.90;;;21.90;51.00;;;;;;4993274;28;20034;-63
2021/06/05 05:15:52;;;;;;;13.10;5.30;;;22.00;50.80;;;;;;4993000;28;20109;-63
2021/06/05 05:18:18;;;;;;;6.90;5.20;;;22.10;50.70;;;;;;4993103;28;20026;-64
2021/06/05 05:20:45;;;;;;;7.10;4.72;;;22.10;50.50;;;;;;4993022;28;20022;-63
2021/06/05 05:23:12;;;;;;;7.75;5.82;;;22.20;50.40;;;;;;4992909;28;20037;-64
2021/06/05 05:25:40;;;;;;;21.27;13.82;;;22.20;50.40;;;;;;4996660;28;20519;-64
2021/06/05 05:28:07;;;;;;;13.27;6.93;;;22.30;50.30;;;;;;4994905;28;20031;-64
2021/06/05 05:30:37;;;;;;;7.97;5.80;;;22.40;50.00;;;;;;4996458;28;20030;-63
2021/06/05 05:33:04;;;;;;;9.52;6.30;;;22.50;49.90;;;;;;4996292;28;20031;-64
2021/06/05 05:35:31;;;;;;;13.85;7.00;;;22.50;49.20;;;;;;4997485;28;20026;-64
2021/06/05 05:37:57;;;;;;;12.13;6.03;;;22.60;48.90;;;;;;4996397;28;20025;-64
2021/06/05 05:40:26;;;;;;;12.10;6.10;;;22.60;48.90;;;;;;4996403;28;20026;-63
2021/06/05 05:42:52;;;;;;;6.32;4.55;;;22.70;48.90;;;;;;4996197;28;20018;-63
2021/06/05 05:45:18;;;;;;;10.55;4.75;;;22.70;48.80;;;;;;4996130;28;20499;-63
2021/06/05 05:47:45;;;;;;;6.55;4.78;;;22.80;48.90;;;;;;4996257;28;20030;-63
2021/06/05 05:50:14;;;;;;;6.97;5.07;;;22.80;48.40;;;;;;4996211;28;20125;-64
2021/06/05 05:52:40;;;;;;;9.95;4.90;;;22.90;48.00;;;;;;4995784;28;20105;-64
2021/06/05 05:55:07;;;;;;;10.10;4.80;;;23.00;47.80;;;;;;4996007;28;20065;-64
2021/06/05 05:57:33;;;;;;;9.30;5.15;;;23.00;48.00;;;;;;4995883;28;20049;-63
2021/06/05 05:59:59;;;;;;;7.35;5.15;;;23.10;47.90;;;;;;5015430;28;20030;-64
2021/06/05 06:02:25;;;;;;;12.02;5.07;;;23.10;47.60;;;;;;5013799;28;20038;-64
2021/06/05 06:04:51;;;;;;;7.65;4.43;;;23.20;47.50;;;;;;5015474;28;20044;-63
2021/06/05 06:07:17;;;;;;;9.00;5.30;;;23.30;47.60;;;;;;5015504;28;20105;-64
2021/06/05 06:09:42;;;;;;;11.70;5.07;;;23.30;47.10;;;;;;5015447;28;20053;-64
2021/06/05 06:12:09;;;;;;;5.95;4.30;;;23.40;47.10;;;;;;5015220;28;20060;-64
2021/06/05 06:14:34;;;;;;;6.85;4.40;;;23.50;47.00;;;;;;5015321;28;20101;-64
2021/06/05 06:17:02;;;;;;;6.55;4.78;;;23.60;47.00;;;;;;5015225;28;20109;-64
2021/06/05 06:19:27;;;;;;;5.63;4.25;;;23.70;46.50;;;;;;5015138;28;20026;-64
2021/06/05 06:21:53;;;;;;;8.80;4.47;;;23.80;46.00;;;;;;5000053;28;20023;-64
2021/06/05 06:24:19;;;;;;;7.75;4.22;;;23.90;46.00;;;;;;4995498;28;20026;-63
2021/06/05 06:26:45;;;;;;;6.35;3.70;;;24.00;45.50;;;;;;4995401;28;20023;-63
2021/06/05 06:29:17;;;;;;;6.38;4.15;;;24.10;45.60;;;;;;4995397;28;20110;-65
2021/06/05 06:31:47;;;;;;;7.43;4.00;;;24.20;45.50;;;;;;4995361;28;20415;-64
2021/06/05 06:34:14;;;;;;;4.63;4.00;;;24.30;45.20;;;;;;4995214;28;20156;-64
2021/06/05 06:36:42;;;;;;;6.28;4.70;;;24.30;44.90;;;;;;4995374;28;20103;-64
2021/06/05 06:39:09;;;;;;;17.70;5.45;;;24.40;44.60;;;;;;4998807;28;20524;-64
2021/06/05 06:41:35;;;;;;;5.07;4.57;;;24.40;44.00;;;;;;5012852;28;20029;-64
2021/06/05 06:44:03;;;;;;;6.72;4.65;;;24.40;44.10;;;;;;5014724;28;20128;-64
2021/06/05 06:46:36;;;;;;;8.98;4.88;;;24.40;43.90;;;;;;5012944;28;20400;-64
2021/06/05 06:49:04;;;;;;;7.78;5.30;;;24.40;44.10;;;;;;5012920;28;20483;-65
2021/06/05 06:51:30;;;;;;;7.70;4.72;;;24.30;43.80;;;;;;5014467;28;20030;-64
2021/06/05 06:53:56;;;;;;;8.80;4.28;;;24.40;44.00;;;;;;5014240;28;20399;-65
2021/06/05 06:56:23;;;;;;;4.93;4.43;;;24.40;43.80;;;;;;5012724;28;20032;-64
2021/06/05 06:58:52;;;;;;;8.23;4.00;;;24.40;43.90;;;;;;5014368;28;20033;-64
2021/06/05 07:01:18;;;;;;;6.47;4.28;;;24.40;44.00;;;;;;5003908;28;20428;-64
2021/06/05 07:03:44;;;;;;;5.35;4.18;;;24.50;44.00;;;;;;4994668;28;20089;-64
2021/06/05 07:06:11;;;;;;;6.82;4.47;;;24.50;43.90;;;;;;4994218;28;20038;-64
2021/06/05 07:08:39;;;;;;;7.78;4.22;;;24.60;44.60;;;;;;4996257;28;20478;-64
2021/06/05 07:11:11;;;;;;;6.63;5.20;;;24.70;43.80;;;;;;5012449;28;20029;-64
2021/06/05 07:13:38;;;;;;;10.73;4.28;;;24.70;43.60;;;;;;5014011;28;20029;-64
2021/06/05 07:16:04;;;;;;;7.82;4.57;;;24.70;43.70;;;;;;5014105;28;20071;-64
2021/06/05 07:18:32;;;;;;;7.18;5.22;;;24.80;43.80;;;;;;5011901;28;20022;-65
2021/06/05 07:20:58;;;;;;;5.95;5.10;;;24.80;43.80;;;;;;4994412;28;20067;-64
2021/06/05 07:23:28;;;;;;;5.97;4.68;;;24.80;43.90;;;;;;4994444;28;20034;-65
2021/06/05 07:25:54;;;;;;;5.82;5.03;;;24.80;43.80;;;;;;4994602;28;20045;-64
2021/06/05 07:28:24;;;;;;;7.55;4.90;;;24.90;44.00;;;;;;4994332;28;20480;-65
2021/06/05 07:30:51;;;;;;;10.63;5.45;;;24.90;44.00;;;;;;4994355;28;20026;-63
2021/06/05 07:33:17;;;;;;;13.38;5.63;;;25.00;44.10;;;;;;4993903;28;20137;-65
2021/06/05 07:35:43;;;;;;;9.40;5.30;;;25.10;44.20;;;;;;4993995;28;20580;-63
2021/06/05 07:38:12;;;;;;;7.10;4.45;;;25.20;44.50;;;;;;4994200;28;20028;-64
2021/06/05 07:40:39;;;;;;;9.38;5.63;;;25.30;44.50;;;;;;4994042;28;20453;-64
2021/06/05 07:43:06;;;;;;;7.60;4.00;;;25.30;44.40;;;;;;4994062;28;20062;-64
2021/06/05 07:45:32;;;;;;;11.52;5.13;;;25.50;44.40;;;;;;4994099;28;20029;-64
2021/06/05 07:47:57;;;;;;;8.55;4.60;;;25.60;44.30;;;;;;4993973;28;20077;-64
2021/06/05 07:50:24;;;;;;;9.27;5.07;;;25.70;44.20;;;;;;4993870;28;20030;-64
2021/06/05 07:52:50;;;;;;;6.25;4.80;;;25.80;44.10;;;;;;4993391;28;20031;-63
2021/06/05 07:55:16;;;;;;;7.82;5.90;;;25.90;44.00;;;;;;4993446;28;20053;-64
2021/06/05 07:57:43;;;;;;;5.97;4.60;;;25.90;43.80;;;;;;4993591;28;20027;-64
2021/06/05 08:00:16;;;;;;;6.10;5.20;;;25.90;44.10;;;;;;4993591;28;20026;-65
2021/06/05 08:02:42;;;;;;;6.63;5.60;;;25.90;44.00;;;;;;4993554;28;20053;-64
2021/06/05 08:05:09;;;;;;;5.35;4.32;;;25.90;44.10;;;;;;4993630;28;20472;-63
2021/06/05 08:07:35;;;;;;;16.02;6.18;;;25.90;44.30;;;;;;4993615;28;20080;-64
2021/06/05 08:10:06;;;;;;;13.27;6.22;;;26.00;44.60;;;;;;4993702;28;20027;-64
2021/06/05 08:12:32;;;;;;;9.30;5.47;;;26.00;44.60;;;;;;4993445;28;20504;-64
2021/06/05 08:14:59;;;;;;;12.13;5.28;;;26.00;44.60;;;;;;4993435;28;20030;-64
2021/06/05 08:17:24;;;;;;;7.05;5.63;;;26.10;44.70;;;;;;4993419;28;20022;-64
2021/06/05 08:19:50;;;;;;;6.03;5.25;;;26.20;44.70;;;;;;4993392;28;20097;-64
2021/06/05 08:22:22;;;;;;;9.45;6.57;;;26.20;44.50;;;;;;4993345;28;20026;-64
2021/06/05 08:24:49;;;;;;;10.05;6.07;;;26.20;44.40;;;;;;4993451;28;20030;-64
2021/06/05 08:27:15;;;;;;;6.35;4.53;;;26.30;44.50;;;;;;4993356;28;20393;-64
2021/06/05 08:29:41;;;;;;;7.07;5.18;;;26.40;44.40;;;;;;4993431;28;20030;-64
2021/06/05 08:32:07;;;;;;;6.32;5.55;;;26.40;44.50;;;;;;4991932;28;20099;-63
2021/06/05 08:34:33;;;;;;;6.03;5.43;;;26.50;44.20;;;;;;4993377;28;20053;-63
2021/06/05 08:36:59;;;;;;;7.22;5.75;;;26.60;44.20;;;;;;4993281;28;20033;-64
2021/06/05 08:39:24;;;;;;;9.57;5.25;;;26.60;44.20;;;;;;4993201;28;20063;-64
2021/06/05 08:41:54;;;;;;;20.92;6.78;;;26.70;44.10;;;;;;4993354;28;20038;-63
2021/06/05 08:44:36;;;;;;;8.35;5.80;;;26.70;44.20;;;;;;4993265;28;20030;-63
2021/06/05 08:47:17;;;;;;;13.40;5.78;;;26.80;44.00;;;;;;4993159;28;20031;-63
2021/06/05 08:49:45;;;;;;;5.97;4.68;;;26.90;43.90;;;;;;4993192;28;20030;-63
2021/06/05 08:52:32;;;;;;;9.23;4.88;;;27.10;43.70;;;;;;4993051;28;20127;-63
2021/06/05 08:55:31;;;;;;;14.40;4.32;;;27.20;43.70;;;;;;4992953;28;20043;-63
2021/06/05 08:58:02;;;;;;;7.85;5.13;;;27.30;43.40;;;;;;4994408;28;20034;-64
2021/06/05 09:00:38;;;;;;;6.57;4.20;;;27.40;42.90;;;;;;4992855;28;20057;-64
2021/06/05 09:03:09;;;;;;;6.43;4.50;;;27.50;42.60;;;;;;4995078;28;20031;-64
2021/06/05 09:05:46;;;;;;;6.25;5.18;;;27.50;42.30;;;;;;4997024;28;20026;-64
2021/06/05 09:08:18;;;;;;;6.75;4.00;;;27.50;42.20;;;;;;4995656;28;20117;-64
2021/06/05 09:10:45;;;;;;;6.72;3.65;;;27.50;42.30;;;;;;4995660;28;20037;-64
2021/06/05 09:13:11;;;;;;;7.07;4.32;;;27.60;42.40;;;;;;4996684;28;20049;-64
2021/06/05 09:15:37;;;;;;;5.70;3.80;;;27.60;42.00;;;;;;4995221;28;20054;-64
2021/06/05 09:18:09;;;;;;;3.95;3.40;;;27.70;42.20;;;;;;4996693;28;20096;-64
2021/06/05 09:20:39;;;;;;;4.30;3.90;;;27.70;42.00;;;;;;4996760;28;20439;-64
2021/06/05 09:23:30;;;;;;;6.53;3.97;;;27.80;41.70;;;;;;4995398;28;20022;-64
2021/06/05 09:26:15;;;;;;;4.00;3.60;;;27.80;41.90;;;;;;4996337;28;20026;-64
2021/06/05 09:28:41;;;;;;;5.60;4.18;;;27.90;41.90;;;;;;4996553;28;20388;-64
2021/06/05 09:31:24;;;;;;;3.58;3.20;;;27.90;41.40;;;;;;4996465;28;20040;-64
2021/06/05 09:33:50;;;;;;;3.72;3.33;;;28.00;41.70;;;;;;4995050;28;20035;-64
2021/06/05 09:36:25;;;;;;;3.60;3.30;;;28.00;41.20;;;;;;4996263;28;20539;-64
2021/06/05 09:38:55;;;;;;;5.30;3.72;;;28.10;41.40;;;;;;4996346;28;20419;-63
2021/06/05 09:41:36;;;;;;;6.40;3.90;;;28.10;41.20;;;;;;4994973;28;20030;-64
2021/06/05 09:44:21;;;;;;;5.43;3.97;;;28.10;41.20;;;;;;4996269;28;20035;-64
2021/06/05 09:46:56;;;;;;;5.90;3.78;;;28.20;41.20;;;;;;4995957;28;20034;-64
2021/06/05 09:49:27;;;;;;;4.90;4.40;;;28.30;40.90;;;;;;4996236;28;20029;-64
2021/06/05 09:52:25;;;;;;;5.72;3.63;;;28.30;40.50;;;;;;4996103;28;20036;-64
2021/06/05 09:54:54;;;;;;;8.88;7.55;;;28.30;40.90;;;;;;5032844;28;20053;-64
2021/06/05 09:57:29;;;;;;;5.78;4.30;;;28.40;40.70;;;;;;5033199;28;20022;-64
2021/06/05 10:00:07;;;;;;;5.50;3.47;;;28.40;40.60;;;;;;5033319;28;20439;-64
2021/06/05 10:02:36;;;;;;;5.65;3.80;;;28.50;40.90;;;;;;5033048;28;20105;-64
2021/06/05 10:05:10;;;;;;;3.35;3.05;;;28.50;40.50;;;;;;5032833;28;20562;-65
2021/06/05 10:07:37;;;;;;;5.13;4.10;;;28.60;40.60;;;;;;5033157;28;20113;-65
2021/06/05 10:10:30;;;;;;;13.38;4.30;;;28.60;39.90;;;;;;5033075;28;20079;-65
2021/06/05 10:12:59;;;;;;;5.40;3.60;;;28.60;40.10;;;;;;5032822;28;20491;-65
2021/06/05 10:15:39;;;;;;;4.00;3.13;;;28.70;39.80;;;;;;5026297;28;20108;-65
2021/06/05 10:18:20;;;;;;;5.07;3.40;;;28.70;39.80;;;;;;5052833;28;20063;-64
2021/06/05 10:21:13;;;;;;;3.95;3.30;;;28.70;39.90;;;;;;5052734;28;20021;-65
2021/06/05 10:23:44;;;;;;;11.70;4.30;;;28.80;39.90;;;;;;5052726;28;20037;-64
2021/06/05 10:26:28;;;;;;;5.50;4.22;;;28.90;39.60;;;;;;5052712;28;20594;-64
2021/06/05 10:29:00;;;;;;;6.88;3.90;;;28.90;39.50;;;;;;5052547;28;20053;-64
2021/06/05 10:31:30;;;;;;;9.30;4.90;;;29.00;39.10;;;;;;5026563;28;20118;-64
2021/06/05 10:34:31;;;;;;;8.13;4.00;;;29.10;38.70;;;;;;4995021;28;20388;-64
2021/06/05 10:36:58;;;;;;;10.30;4.70;;;29.20;39.40;;;;;;4995278;28;20033;-65
2021/06/05 10:39:31;;;;;;;8.88;5.32;;;29.40;39.10;;;;;;4995099;28;20022;-64
2021/06/05 10:42:02;;;;;;;5.10;3.25;;;29.40;38.70;;;;;;4995228;28;20511;-64
2021/06/05 10:44:28;;;;;;;4.72;3.28;;;29.50;38.40;;;;;;4994911;28;20433;-64
2021/06/05 10:47:09;;;;;;;11.02;4.20;;;29.60;38.30;;;;;;4994782;28;20105;-64
2021/06/05 10:49:40;;;;;;;4.13;3.28;;;29.60;38.00;;;;;;4994974;28;20050;-65
2021/06/05 10:52:18;;;;;;;5.35;3.92;;;29.70;37.60;;;;;;4994813;28;20109;-65
2021/06/05 10:54:50;;;;;;;5.22;3.40;;;29.70;37.60;;;;;;4994735;28;20415;-64
2021/06/05 10:57:19;;;;;;;5.70;3.50;;;29.70;37.60;;;;;;5010031;28;20030;-64
2021/06/05 10:59:50;;;;;;;3.35;2.92;;;29.70;37.30;;;;;;4995066;28;20023;-65
2021/06/05 11:02:38;;;;;;;7.25;3.33;;;29.70;37.60;;;;;;4998123;28;20022;-64
2021/06/05 11:05:16;;;;;;;6.65;3.05;;;29.70;37.80;;;;;;4994647;28;20030;-64
2021/06/05 11:07:43;;;;;;;6.45;3.45;;;29.70;37.50;;;;;;5010226;28;20450;-65
2021/06/05 11:10:10;;;;;;;8.43;3.97;;;29.70;37.30;;;;;;5014253;28;20030;-66
2021/06/05 11:12:35;;;;;;;4.40;2.97;;;29.70;37.60;;;;;;5013886;28;20121;-63
2021/06/05 11:15:03;;;;;;;3.92;3.03;;;29.70;37.70;;;;;;4994545;28;20584;-63
2021/06/05 11:17:39;;;;;;;3.67;3.03;;;29.70;37.80;;;;;;4994533;28;20073;-63
2021/06/05 11:20:06;;;;;;;5.35;3.85;;;29.80;38.10;;;;;;4994330;28;20026;-63
2021/06/05 11:22:50;;;;;;;6.47;3.35;;;29.80;37.40;;;;;;4997211;28;20152;-63
2021/06/05 11:25:16;;;;;;;13.13;3.42;;;29.80;38.00;;;;;;5010249;28;20022;-63
2021/06/05 11:27:41;;;;;;;5.82;2.53;;;29.80;36.70;;;;;;4994306;28;20093;-63
2021/06/05 11:30:37;;;;;;;4.57;2.97;;;29.80;36.20;;;;;;4993047;28;20038;-64
2021/06/05 11:33:10;;;;;;;5.55;2.38;;;29.80;36.60;;;;;;5006777;28;20042;-64
2021/06/05 11:35:54;;;;;;;8.25;4.13;;;29.90;36.50;;;;;;5012213;28;20026;-63
2021/06/05 11:38:23;;;;;;;3.47;2.85;;;29.90;36.30;;;;;;5013638;28;20048;-64
2021/06/05 11:41:04;;;;;;;8.55;3.72;;;30.00;35.50;;;;;;5013559;28;20022;-64
2021/06/05 11:43:30;;;;;;;5.97;2.88;;;30.00;35.40;;;;;;5013703;28;20026;-64
2021/06/05 11:46:03;;;;;;;7.35;3.30;;;30.10;34.30;;;;;;5013540;28;20484;-64
2021/06/05 11:48:41;;;;;;;4.40;2.83;;;30.10;35.00;;;;;;5013577;28;20033;-64
2021/06/05 11:51:22;;;;;;;4.10;3.10;;;30.10;34.30;;;;;;5013561;28;20101;-64
2021/06/05 11:53:49;;;;;;;3.17;2.63;;;30.20;34.70;;;;;;5013424;28;20080;-63
2021/06/05 11:56:28;;;;;;;3.63;2.40;;;30.20;33.70;;;;;;5013435;28;20049;-63
2021/06/05 11:58:56;;;;;;;5.05;2.53;;;30.20;33.70;;;;;;5013582;28;20022;-64
2021/06/05 12:01:29;;;;;;;4.25;2.60;;;30.30;34.00;;;;;;5013495;28;20026;-64
2021/06/05 12:04:03;;;;;;;4.50;2.42;;;30.40;33.90;;;;;;5013447;28;20022;-64
2021/06/05 12:06:37;;;;;;;4.32;2.13;;;30.40;34.00;;;;;;5013451;28;20026;-64
2021/06/05 12:09:14;;;;;;;2.97;2.13;;;30.40;33.20;;;;;;5013239;28;20030;-63
2021/06/05 12:11:48;;;;;;;2.72;2.53;;;30.50;33.60;;;;;;5009798;28;20113;-64
2021/06/05 12:14:24;;;;;;;6.78;2.38;;;30.60;34.50;;;;;;4993377;28;20030;-64
2021/06/05 12:16:59;;;;;;;8.13;3.05;;;30.70;34.40;;;;;;4993547;28;20027;-64
2021/06/05 12:19:33;;;;;;;4.50;2.65;;;30.70;34.40;;;;;;4993501;28;20023;-64
2021/06/05 12:22:27;;;;;;;5.25;2.78;;;30.80;34.00;;;;;;4993685;28;20030;-64
2021/06/05 12:24:54;;;;;;;3.25;2.75;;;30.80;34.30;;;;;;4993565;28;20073;-63
2021/06/05 12:27:31;;;;;;;4.28;2.78;;;30.80;33.30;;;;;;4993473;28;20053;-64
2021/06/05 12:30:21;;;;;;;2.65;2.10;;;30.90;33.40;;;;;;4993461;28;20105;-64
2021/06/05 12:33:01;;;;;;;5.85;2.50;;;30.80;32.90;;;;;;4993611;28;20380;-64
2021/06/05 12:35:58;;;;;;;4.93;2.92;;;30.80;32.20;;;;;;4993456;28;20052;-63
2021/06/05 12:38:39;;;;;;;4.18;2.30;;;30.80;30.70;;;;;;5004055;28;20425;-63
2021/06/05 12:41:08;;;;;;;3.60;2.33;;;30.90;30.80;;;;;;4997610;28;20076;-64
2021/06/05 12:43:43;;;;;;;2.92;2.22;;;30.90;30.80;;;;;;4997490;28;20061;-64
2021/06/05 12:46:13;;;;;;;4.63;2.53;;;31.00;31.40;;;;;;4997395;28;20083;-64
2021/06/05 12:48:39;;;;;;;5.47;2.58;;;31.00;31.90;;;;;;4997400;28;20022;-63
2021/06/05 12:51:08;;;;;;;3.47;2.08;;;31.20;31.90;;;;;;4997251;28;20041;-64
2021/06/05 12:53:35;;;;;;;3.33;2.90;;;31.20;31.90;;;;;;4996437;28;20047;-64
2021/06/05 12:56:05;;;;;;;3.47;2.53;;;31.20;32.00;;;;;;4995951;28;20030;-64
2021/06/05 12:58:41;;;;;;;7.47;3.03;;;31.30;33.10;;;;;;4999145;28;20023;-64
2021/06/05 13:01:34;;;;;;;3.92;2.50;;;31.40;32.90;;;;;;5016734;28;20026;-64
2021/06/05 13:04:01;;;;;;;3.63;2.90;;;31.40;32.80;;;;;;5016654;28;20076;-64